createdAt,value
2022-08-31T00:01:05.534Z,8.7
2022-08-31T00:02:13.940Z,8.7
2022-08-31T00:03:22.218Z,8.7
2022-08-31T00:04:30.823Z,8.5
2022-08-31T00:05:39.077Z,8.5
2022-08-31T00:06:47.402Z,8.5
2022-08-31T00:07:55.975Z,9.4
2022-08-31T00:09:04.306Z,9.4
2022-08-31T00:10:12.644Z,9.4
2022-08-31T00:11:21.178Z,8.8
2022-08-31T00:12:29.504Z,8.8
2022-08-31T00:13:37.874Z,8.8
2022-08-31T00:14:46.408Z,9
2022-08-31T00:15:54.750Z,9
2022-08-31T00:17:03.083Z,9
2022-08-31T00:18:11.644Z,7.8
2022-08-31T00:19:19.990Z,7.8
2022-08-31T00:20:32.956Z,7.8
2022-08-31T00:21:36.900Z,9
2022-08-31T00:22:45.232Z,9
2022-08-31T00:23:53.561Z,9
2022-08-31T00:25:02.096Z,8.6
2022-08-31T00:26:10.434Z,8.6
2022-08-31T00:27:18.771Z,8.6
2022-08-31T00:28:27.320Z,9.7
2022-08-31T00:29:35.675Z,9.7
2022-08-31T00:30:44.002Z,9.7
2022-08-31T00:31:52.604Z,9.4
2022-08-31T00:33:00.883Z,9.4
2022-08-31T00:34:09.218Z,9.4
2022-08-31T00:35:17.765Z,9
2022-08-31T00:36:26.131Z,9
2022-08-31T00:37:34.470Z,9
2022-08-31T00:38:43.022Z,9.4
2022-08-31T00:39:51.363Z,9.4
2022-08-31T00:40:59.706Z,9.4
2022-08-31T00:42:08.229Z,10.6
2022-08-31T00:43:16.793Z,10.6
2022-08-31T00:44:24.911Z,10.6
2022-08-31T00:45:33.486Z,8.7
2022-08-31T00:46:41.792Z,8.7
2022-08-31T00:47:50.132Z,8.7
2022-08-31T00:48:58.708Z,8.4
2022-08-31T00:50:07.028Z,8.4
2022-08-31T00:51:18.787Z,8.4
2022-08-31T00:52:23.875Z,8.8
2022-08-31T00:53:32.219Z,8.8
2022-08-31T00:54:40.557Z,8.8
2022-08-31T00:55:49.102Z,9.3
2022-08-31T00:56:57.429Z,9.3
2022-08-31T00:58:05.772Z,9.3
2022-08-31T00:59:14.309Z,10.1
2022-08-31T01:00:22.640Z,10.1
2022-08-31T01:01:31.076Z,10.1
2022-08-31T01:02:39.580Z,9.6
2022-08-31T01:03:47.893Z,9.6
2022-08-31T01:04:56.238Z,9.6
2022-08-31T01:06:04.791Z,9.6
2022-08-31T01:07:13.138Z,9.6
2022-08-31T01:08:23.931Z,9.6
2022-08-31T01:09:30.036Z,9.3
2022-08-31T01:10:38.352Z,9.3
2022-08-31T01:11:46.673Z,9.3
2022-08-31T01:12:55.221Z,9.2
2022-08-31T01:14:03.551Z,9.2
2022-08-31T01:15:11.879Z,9.2
2022-08-31T01:16:20.461Z,8.8
2022-08-31T01:17:28.767Z,8.8
2022-08-31T01:18:37.086Z,8.8
2022-08-31T01:19:45.630Z,9.2
2022-08-31T01:20:53.971Z,9.2
2022-08-31T01:22:02.300Z,9.2
2022-08-31T01:23:10.931Z,8.5
2022-08-31T01:24:19.174Z,8.5
2022-08-31T01:25:32.574Z,8.5
2022-08-31T01:26:36.041Z,8.5
2022-08-31T01:27:44.383Z,8.5
2022-08-31T01:28:52.736Z,8.5
2022-08-31T01:30:01.278Z,9.3
2022-08-31T01:31:09.648Z,9.3
2022-08-31T01:32:17.942Z,9.3
2022-08-31T01:33:26.465Z,10
2022-08-31T01:34:34.798Z,10
2022-08-31T01:35:43.141Z,10
2022-08-31T01:36:51.694Z,11.3
2022-08-31T01:38:00.040Z,11.3
2022-08-31T01:39:08.383Z,11.3
2022-08-31T01:40:17.005Z,10.3
2022-08-31T01:41:25.267Z,10.3
2022-08-31T01:42:34.444Z,10.3
2022-08-31T01:43:42.137Z,9.3
2022-08-31T01:44:50.475Z,9.3
2022-08-31T01:45:58.798Z,9.3
2022-08-31T01:47:07.409Z,11
2022-08-31T01:48:15.676Z,11
2022-08-31T01:49:24.010Z,11
2022-08-31T01:50:32.555Z,10.4
2022-08-31T01:51:40.889Z,10.4
2022-08-31T01:52:49.220Z,10.4
2022-08-31T01:53:57.745Z,11.3
2022-08-31T01:55:06.100Z,11.3
2022-08-31T01:56:14.417Z,11.3
2022-08-31T01:57:32.945Z,9.5
2022-08-31T01:58:31.287Z,9.5
2022-08-31T01:59:39.639Z,9.5
2022-08-31T02:00:48.196Z,10.6
2022-08-31T02:01:56.632Z,10.6
2022-08-31T02:03:04.849Z,10.6
2022-08-31T02:04:13.403Z,9.8
2022-08-31T02:05:21.750Z,9.8
2022-08-31T02:06:30.085Z,9.8
2022-08-31T02:07:38.629Z,9.8
2022-08-31T02:08:46.967Z,9.8
2022-08-31T02:09:55.310Z,9.8
2022-08-31T02:11:03.844Z,10.3
2022-08-31T02:12:12.752Z,10.3
2022-08-31T02:13:20.535Z,10.3
2022-08-31T02:14:29.074Z,9.6
2022-08-31T02:15:37.408Z,9.6
2022-08-31T02:16:45.759Z,9.6
2022-08-31T02:17:54.309Z,10.9
2022-08-31T02:19:02.657Z,10.9
2022-08-31T02:20:10.979Z,10.9
2022-08-31T02:21:19.503Z,9.5
2022-08-31T02:22:27.857Z,9.5
2022-08-31T02:23:36.204Z,9.5
2022-08-31T02:24:44.754Z,10.4
2022-08-31T02:25:53.089Z,10.4
2022-08-31T02:27:01.421Z,10.4
2022-08-31T02:28:09.963Z,11
2022-08-31T02:29:18.309Z,11
2022-08-31T02:30:26.650Z,11
2022-08-31T02:31:35.240Z,9.9
2022-08-31T02:32:43.510Z,9.9
2022-08-31T02:33:51.860Z,9.9
2022-08-31T02:35:00.396Z,9.8
2022-08-31T02:36:08.718Z,9.8
2022-08-31T02:37:17.060Z,9.8
2022-08-31T02:38:25.602Z,10.5
2022-08-31T02:39:33.945Z,10.5
2022-08-31T02:40:42.320Z,10.5
2022-08-31T02:41:50.819Z,11.4
2022-08-31T02:42:59.154Z,11.4
2022-08-31T02:44:07.474Z,11.4
2022-08-31T02:45:15.994Z,10.1
2022-08-31T02:46:24.420Z,10.1
2022-08-31T02:47:32.695Z,10.1
2022-08-31T02:48:41.245Z,10.4
2022-08-31T02:49:49.596Z,10.4
2022-08-31T02:50:57.951Z,10.4
2022-08-31T02:52:06.494Z,10.7
2022-08-31T02:53:14.806Z,10.7
2022-08-31T02:54:23.132Z,10.7
2022-08-31T02:55:31.681Z,9.8
2022-08-31T02:56:40.003Z,9.8
2022-08-31T02:57:48.326Z,9.8
2022-08-31T02:58:56.857Z,10
2022-08-31T03:00:05.190Z,10
2022-08-31T03:01:13.598Z,10
2022-08-31T03:02:22.101Z,13.5
2022-08-31T03:03:30.402Z,13.5
2022-08-31T03:04:38.751Z,13.5
2022-08-31T03:05:47.308Z,11.3
2022-08-31T03:06:55.656Z,11.3
2022-08-31T03:08:04.008Z,11.3
2022-08-31T03:09:12.555Z,11
2022-08-31T03:10:20.885Z,11
2022-08-31T03:11:29.225Z,11
2022-08-31T03:12:37.767Z,11
2022-08-31T03:13:46.096Z,11
2022-08-31T03:14:54.439Z,11
2022-08-31T03:16:03.055Z,13.7
2022-08-31T03:17:11.335Z,13.7
2022-08-31T03:18:19.684Z,13.7
2022-08-31T03:19:28.210Z,11
2022-08-31T03:20:36.556Z,11
2022-08-31T03:21:44.902Z,11
2022-08-31T03:22:53.431Z,12.3
2022-08-31T03:24:01.759Z,12.3
2022-08-31T03:25:10.099Z,12.3
2022-08-31T03:26:18.624Z,12.2
2022-08-31T03:27:26.973Z,12.2
2022-08-31T03:28:35.319Z,12.2
2022-08-31T03:29:43.878Z,13.2
2022-08-31T03:30:52.257Z,13.2
2022-08-31T03:32:00.563Z,13.2
2022-08-31T03:33:09.115Z,11.6
2022-08-31T03:34:17.465Z,11.6
2022-08-31T03:35:25.791Z,11.6
2022-08-31T03:36:34.348Z,10.6
2022-08-31T03:37:42.681Z,10.6
2022-08-31T03:38:51.025Z,10.6
2022-08-31T03:39:59.629Z,12.4
2022-08-31T03:41:07.911Z,12.4
2022-08-31T03:42:16.269Z,12.4
2022-08-31T03:43:24.822Z,11.6
2022-08-31T03:44:33.161Z,11.6
2022-08-31T03:45:41.526Z,11.6
2022-08-31T03:46:50.156Z,12.4
2022-08-31T03:47:58.408Z,12.4
2022-08-31T03:49:06.754Z,12.4
2022-08-31T03:50:15.287Z,11.8
2022-08-31T03:51:23.632Z,11.8
2022-08-31T03:52:31.955Z,11.8
2022-08-31T03:53:40.483Z,11.8
2022-08-31T03:54:48.823Z,11.8
2022-08-31T03:55:57.167Z,11.8
2022-08-31T03:57:05.698Z,12.5
2022-08-31T03:58:14.048Z,12.5
2022-08-31T03:59:22.367Z,12.5
2022-08-31T04:00:30.930Z,11.7
2022-08-31T04:01:39.298Z,11.7
2022-08-31T04:02:47.667Z,11.7
2022-08-31T04:03:56.126Z,12.5
2022-08-31T04:05:04.465Z,12.5
2022-08-31T04:06:12.844Z,12.5
2022-08-31T04:07:21.368Z,13.5
2022-08-31T04:08:29.689Z,13.5
2022-08-31T04:09:38.046Z,13.5
2022-08-31T04:10:46.601Z,13.2
2022-08-31T04:11:54.913Z,13.2
2022-08-31T04:13:03.242Z,13.2
2022-08-31T04:14:11.790Z,13.2
2022-08-31T04:15:20.131Z,13.2
2022-08-31T04:16:28.478Z,13.2
2022-08-31T04:17:37.011Z,15.1
2022-08-31T04:18:45.328Z,15.1
2022-08-31T04:19:53.669Z,15.1
2022-08-31T04:21:02.219Z,13.6
2022-08-31T04:22:10.553Z,13.6
2022-08-31T04:23:19.077Z,13.6
2022-08-31T04:24:27.483Z,13.3
2022-08-31T04:25:35.836Z,13.3
2022-08-31T04:26:44.190Z,13.3
2022-08-31T04:27:52.722Z,13.4
2022-08-31T04:29:01.063Z,13.4
2022-08-31T04:30:09.394Z,13.4
2022-08-31T04:31:18.008Z,12.3
2022-08-31T04:32:26.277Z,12.3
2022-08-31T04:33:34.620Z,12.3
2022-08-31T04:34:43.161Z,14.8
2022-08-31T04:35:51.515Z,14.8
2022-08-31T04:36:59.856Z,14.8
2022-08-31T04:38:08.403Z,12.6
2022-08-31T04:39:16.730Z,12.6
2022-08-31T04:40:25.682Z,12.6
2022-08-31T04:41:33.597Z,13.2
2022-08-31T04:42:41.910Z,13.2
2022-08-31T04:43:50.223Z,13.2
2022-08-31T04:44:58.758Z,13.5
2022-08-31T04:46:07.132Z,13.5
2022-08-31T04:47:15.398Z,13.5
2022-08-31T04:48:23.924Z,15.1
2022-08-31T04:49:32.234Z,15.1
2022-08-31T04:50:42.604Z,15.1
2022-08-31T04:51:49.093Z,15.1
2022-08-31T04:53:03.242Z,15.1
2022-08-31T04:54:05.730Z,15.1
2022-08-31T04:55:14.282Z,16.200001
2022-08-31T04:56:22.651Z,16.200001
2022-08-31T04:57:30.984Z,16.200001
2022-08-31T04:58:39.525Z,14.8
2022-08-31T04:59:47.872Z,14.8
2022-08-31T05:00:56.297Z,14.8
2022-08-31T05:02:04.858Z,15
2022-08-31T05:03:13.110Z,15
2022-08-31T05:04:21.460Z,15
2022-08-31T05:05:30.019Z,14.4
2022-08-31T05:06:38.369Z,14.4
2022-08-31T05:07:46.709Z,14.4
2022-08-31T05:08:55.249Z,14.9
2022-08-31T05:10:03.560Z,14.9
2022-08-31T05:11:11.910Z,14.9
2022-08-31T05:12:20.459Z,14
2022-08-31T05:13:28.774Z,14
2022-08-31T05:14:37.215Z,14
2022-08-31T05:15:45.676Z,15.3
2022-08-31T05:16:53.970Z,15.3
2022-08-31T05:18:02.284Z,15.3
2022-08-31T05:19:10.805Z,13.1
2022-08-31T05:20:19.145Z,13.1
2022-08-31T05:21:27.476Z,13.1
2022-08-31T05:22:35.989Z,15
2022-08-31T05:23:44.314Z,15
2022-08-31T05:24:52.624Z,15
2022-08-31T05:26:01.159Z,15.4
2022-08-31T05:27:09.486Z,15.4
2022-08-31T05:28:17.824Z,15.4
2022-08-31T05:29:26.356Z,13.9
2022-08-31T05:30:34.685Z,13.9
2022-08-31T05:31:43.000Z,13.9
2022-08-31T05:32:51.530Z,17.1
2022-08-31T05:33:59.855Z,17.1
2022-08-31T05:35:08.176Z,17.1
2022-08-31T05:36:16.706Z,16.9
2022-08-31T05:37:25.027Z,16.9
2022-08-31T05:38:33.349Z,16.9
2022-08-31T05:39:41.872Z,15.7
2022-08-31T05:40:50.325Z,15.7
2022-08-31T05:41:58.519Z,15.7
2022-08-31T05:43:07.041Z,14.8
2022-08-31T05:44:15.366Z,14.8
2022-08-31T05:45:23.698Z,14.8
2022-08-31T05:46:32.269Z,15.1
2022-08-31T05:47:40.539Z,15.1
2022-08-31T05:48:49.328Z,15.1
2022-08-31T05:49:57.390Z,18.5
2022-08-31T05:51:05.722Z,18.5
2022-08-31T05:52:14.038Z,18.5
2022-08-31T05:53:22.568Z,16.6
2022-08-31T05:54:30.868Z,16.6
2022-08-31T05:55:39.197Z,16.6
2022-08-31T05:56:47.728Z,16.799999
2022-08-31T05:57:56.040Z,16.799999
2022-08-31T05:59:04.360Z,16.799999
2022-08-31T06:00:12.905Z,16.700001
2022-08-31T06:01:21.295Z,16.700001
2022-08-31T06:02:29.701Z,16.700001
2022-08-31T06:03:38.077Z,20.700001
2022-08-31T06:04:46.440Z,20.700001
2022-08-31T06:05:54.721Z,20.700001
2022-08-31T06:07:03.255Z,18.9
2022-08-31T06:08:15.167Z,18.9
2022-08-31T06:09:19.890Z,18.9
2022-08-31T06:10:28.466Z,17.700001
2022-08-31T06:11:36.747Z,17.700001
2022-08-31T06:12:45.059Z,17.700001
2022-08-31T06:13:53.612Z,20.4
2022-08-31T06:15:01.931Z,20.4
2022-08-31T06:16:10.322Z,20.4
2022-08-31T06:17:18.790Z,20.1
2022-08-31T06:18:27.144Z,20.1
2022-08-31T06:19:35.454Z,20.1
2022-08-31T06:20:43.999Z,19.5
2022-08-31T06:21:52.313Z,19.5
2022-08-31T06:23:00.621Z,19.5
2022-08-31T06:24:09.157Z,23.5
2022-08-31T06:25:17.494Z,23.5
2022-08-31T06:26:25.821Z,23.5
2022-08-31T06:27:34.339Z,21.6
2022-08-31T06:28:42.659Z,21.6
2022-08-31T06:29:50.988Z,21.6
2022-08-31T06:30:59.565Z,20.9
2022-08-31T06:32:07.989Z,20.9
2022-08-31T06:33:16.166Z,20.9
2022-08-31T06:34:24.713Z,21.6
2022-08-31T06:35:33.047Z,21.6
2022-08-31T06:36:41.367Z,21.6
2022-08-31T06:37:49.893Z,20.6
2022-08-31T06:38:58.213Z,20.6
2022-08-31T06:40:06.626Z,20.6
2022-08-31T06:41:15.090Z,20.6
2022-08-31T06:42:23.403Z,20.6
2022-08-31T06:43:31.713Z,20.6
2022-08-31T06:44:40.245Z,20.5
2022-08-31T06:45:48.581Z,20.5
2022-08-31T06:46:56.885Z,20.5
2022-08-31T06:48:05.409Z,21.1
2022-08-31T06:49:13.721Z,21.1
2022-08-31T06:50:22.080Z,21.1
2022-08-31T06:51:30.624Z,20.799999
2022-08-31T06:52:39.219Z,20.799999
2022-08-31T06:53:47.267Z,20.799999
2022-08-31T06:54:55.805Z,19.799999
2022-08-31T06:56:04.126Z,19.799999
2022-08-31T06:57:12.444Z,19.799999
2022-08-31T06:58:20.981Z,19.5
2022-08-31T06:59:30.030Z,19.5
2022-08-31T07:00:37.633Z,19.5
2022-08-31T07:01:46.270Z,21.5
2022-08-31T07:02:57.187Z,21.5
2022-08-31T07:04:02.836Z,21.5
2022-08-31T07:05:15.137Z,20.1
2022-08-31T07:06:19.722Z,20.1
2022-08-31T07:07:28.064Z,20.1
2022-08-31T07:08:36.584Z,22.299999
2022-08-31T07:09:44.911Z,22.299999
2022-08-31T07:10:53.253Z,22.299999
2022-08-31T07:12:01.784Z,23
2022-08-31T07:13:10.121Z,23
2022-08-31T07:14:18.445Z,23
2022-08-31T07:15:26.996Z,21
2022-08-31T07:16:35.399Z,21
2022-08-31T07:17:43.624Z,21
2022-08-31T07:18:52.162Z,23.799999
2022-08-31T07:20:00.488Z,23.799999
2022-08-31T07:21:08.814Z,23.799999
2022-08-31T07:22:17.332Z,24.1
2022-08-31T07:23:25.670Z,24.1
2022-08-31T07:24:33.997Z,24.1
2022-08-31T07:25:42.536Z,24.6
2022-08-31T07:26:50.862Z,24.6
2022-08-31T07:27:59.178Z,24.6
2022-08-31T07:29:07.713Z,24.1
2022-08-31T07:30:16.033Z,24.1
2022-08-31T07:31:24.431Z,24.1
2022-08-31T07:32:32.895Z,23.200001
2022-08-31T07:33:41.223Z,23.200001
2022-08-31T07:34:55.305Z,23.200001
2022-08-31T07:35:58.083Z,24.799999
2022-08-31T07:37:06.414Z,24.799999
2022-08-31T07:38:14.716Z,24.799999
2022-08-31T07:39:23.237Z,26.200001
2022-08-31T07:40:31.631Z,26.200001
2022-08-31T07:41:39.905Z,26.200001
2022-08-31T07:42:48.430Z,26.700001
2022-08-31T07:43:56.770Z,26.700001
2022-08-31T07:45:05.087Z,26.700001
2022-08-31T07:46:13.696Z,28.1
2022-08-31T07:47:22.103Z,28.1
2022-08-31T07:48:30.276Z,28.1
2022-08-31T07:49:38.813Z,29.5
2022-08-31T07:50:47.176Z,29.5
2022-08-31T07:51:55.472Z,29.5
2022-08-31T07:53:04.002Z,30.5
2022-08-31T07:54:12.328Z,30.5
2022-08-31T07:55:20.669Z,30.5
2022-08-31T07:56:30.868Z,29.5
2022-08-31T07:57:37.531Z,29.5
2022-08-31T07:58:45.862Z,29.5
2022-08-31T07:59:55.131Z,29.299999
2022-08-31T08:01:03.465Z,29.299999
2022-08-31T08:02:15.287Z,29.299999
2022-08-31T08:03:20.501Z,28
2022-08-31T08:04:28.640Z,28
2022-08-31T08:05:36.972Z,28
2022-08-31T08:06:45.502Z,28.299999
2022-08-31T08:07:54.722Z,28.299999
2022-08-31T08:09:21.825Z,28.299999
2022-08-31T08:10:10.664Z,26.299999
2022-08-31T08:11:18.994Z,26.299999
2022-08-31T08:12:27.316Z,26.299999
2022-08-31T08:13:35.846Z,25.200001
2022-08-31T08:14:44.158Z,25.200001
2022-08-31T08:15:52.721Z,25.200001
2022-08-31T08:17:01.033Z,26.5
2022-08-31T08:18:09.374Z,26.5
2022-08-31T08:19:17.697Z,26.5
2022-08-31T08:20:34.054Z,24
2022-08-31T08:21:34.547Z,24
2022-08-31T08:22:52.026Z,24
2022-08-31T08:23:51.406Z,22.4
2022-08-31T08:24:59.742Z,22.4
2022-08-31T08:26:08.083Z,22.4
2022-08-31T08:27:16.631Z,24
2022-08-31T08:28:41.159Z,24
2022-08-31T08:29:33.623Z,24
2022-08-31T08:30:41.860Z,21.799999
2022-08-31T08:31:50.242Z,21.799999
2022-08-31T08:32:58.497Z,21.799999
2022-08-31T08:34:07.021Z,22.700001
2022-08-31T08:35:15.360Z,22.700001
2022-08-31T08:36:23.669Z,22.700001
2022-08-31T08:37:54.700Z,22.5
2022-08-31T08:38:40.525Z,22.5
2022-08-31T08:39:48.856Z,22.5
2022-08-31T08:40:57.389Z,22.799999
2022-08-31T08:42:05.723Z,22.799999
2022-08-31T08:43:14.111Z,22.799999
2022-08-31T08:44:22.607Z,22.5
2022-08-31T08:45:30.954Z,22.5
2022-08-31T08:46:39.269Z,22.5
2022-08-31T08:47:47.887Z,22.5
2022-08-31T08:48:56.197Z,22.5
2022-08-31T08:50:04.485Z,22.5
2022-08-31T08:51:13.029Z,22.9
2022-08-31T08:52:21.344Z,22.9
2022-08-31T08:53:29.658Z,22.9
2022-08-31T08:54:38.191Z,21.9
2022-08-31T08:55:46.518Z,21.9
2022-08-31T08:56:54.827Z,21.9
2022-08-31T08:58:03.354Z,23.799999
2022-08-31T08:59:14.763Z,23.799999
2022-08-31T09:00:20.104Z,23.799999
2022-08-31T09:01:28.569Z,22.5
2022-08-31T09:02:36.919Z,22.5
2022-08-31T09:03:45.179Z,22.5
2022-08-31T09:04:53.720Z,23.9
2022-08-31T09:06:02.074Z,23.9
2022-08-31T09:07:10.360Z,23.9
2022-08-31T09:08:18.880Z,23.200001
2022-08-31T09:09:27.208Z,23.200001
2022-08-31T09:10:35.534Z,23.200001
2022-08-31T09:11:44.065Z,22.299999
2022-08-31T09:12:52.392Z,22.299999
2022-08-31T09:14:00.705Z,22.299999
2022-08-31T09:15:09.250Z,24.200001
2022-08-31T09:16:17.709Z,24.200001
2022-08-31T09:17:25.900Z,24.200001
2022-08-31T09:18:34.424Z,26.5
2022-08-31T09:19:42.756Z,26.5
2022-08-31T09:20:51.078Z,26.5
2022-08-31T09:21:59.601Z,25.799999
2022-08-31T09:23:07.936Z,25.799999
2022-08-31T09:24:16.246Z,25.799999
2022-08-31T09:25:24.786Z,28.1
2022-08-31T09:26:33.101Z,28.1
2022-08-31T09:27:41.421Z,28.1
2022-08-31T09:28:49.979Z,27.299999
2022-08-31T09:29:58.276Z,27.299999
2022-08-31T09:31:06.669Z,27.299999
2022-08-31T09:32:15.125Z,27.299999
2022-08-31T09:33:23.449Z,27.299999
2022-08-31T09:34:31.779Z,27.299999
2022-08-31T09:35:40.323Z,26.4
2022-08-31T09:36:48.613Z,26.4
2022-08-31T09:37:56.953Z,26.4
2022-08-31T09:39:05.484Z,17.700001
2022-08-31T09:40:13.858Z,17.700001
2022-08-31T09:41:22.145Z,17.700001
2022-08-31T09:42:30.680Z,17
2022-08-31T09:43:40.281Z,17
2022-08-31T09:44:47.334Z,17
2022-08-31T09:45:55.941Z,16.299999
2022-08-31T09:47:04.222Z,16.299999
2022-08-31T09:48:12.515Z,16.299999
2022-08-31T09:49:21.042Z,16.700001
2022-08-31T09:50:29.360Z,16.700001
2022-08-31T09:51:37.670Z,16.700001
2022-08-31T09:52:46.193Z,17.200001
2022-08-31T09:53:54.513Z,17.200001
2022-08-31T09:55:02.847Z,17.200001
2022-08-31T09:56:11.380Z,13.4
2022-08-31T09:57:19.696Z,13.4
2022-08-31T09:58:28.023Z,13.4
2022-08-31T09:59:36.554Z,12.6
2022-08-31T10:00:44.878Z,12.6
2022-08-31T10:01:53.227Z,12.6
2022-08-31T10:03:06.070Z,10.7
2022-08-31T10:04:10.043Z,10.7
2022-08-31T10:05:18.420Z,10.7
2022-08-31T10:06:26.922Z,8.7
2022-08-31T10:07:35.263Z,8.7
2022-08-31T10:08:43.568Z,8.7
2022-08-31T10:09:52.325Z,8.2
2022-08-31T10:11:00.443Z,8.2
2022-08-31T10:12:08.764Z,8.2
2022-08-31T10:13:17.330Z,7.7
2022-08-31T10:14:25.625Z,7.7
2022-08-31T10:15:34.007Z,7.7
2022-08-31T10:16:42.492Z,8.1
2022-08-31T10:17:50.834Z,8.1
2022-08-31T10:18:59.149Z,8.1
2022-08-31T10:20:07.677Z,8
2022-08-31T10:21:15.996Z,8
2022-08-31T10:22:24.322Z,8
2022-08-31T10:23:32.836Z,9
2022-08-31T10:24:41.160Z,9
2022-08-31T10:25:49.482Z,9
2022-08-31T10:26:58.034Z,7.4
2022-08-31T10:28:06.363Z,7.4
2022-08-31T10:29:19.206Z,7.4
2022-08-31T10:30:23.203Z,6.9
2022-08-31T10:31:31.591Z,6.9
2022-08-31T10:32:39.869Z,6.9
2022-08-31T10:33:48.414Z,6.4
2022-08-31T10:34:56.737Z,6.4
2022-08-31T10:36:05.068Z,6.4
2022-08-31T10:37:13.586Z,7.1
2022-08-31T10:38:21.942Z,7.1
2022-08-31T10:39:30.386Z,7.1
2022-08-31T10:40:38.968Z,6.3
2022-08-31T10:41:47.290Z,6.3
2022-08-31T10:42:55.607Z,6.3
2022-08-31T10:44:04.142Z,5.7
2022-08-31T10:45:15.230Z,5.7
2022-08-31T10:46:20.873Z,5.7
2022-08-31T10:47:32.813Z,5.8
2022-08-31T10:48:37.680Z,5.8
2022-08-31T10:49:46.004Z,5.8
2022-08-31T10:50:54.559Z,6.7
2022-08-31T10:52:02.871Z,6.7
2022-08-31T10:53:11.206Z,6.7
2022-08-31T10:54:19.728Z,5.9
2022-08-31T10:55:28.048Z,5.9
2022-08-31T10:56:36.371Z,5.9
2022-08-31T10:57:44.900Z,5.9
2022-08-31T10:58:53.233Z,5.9
2022-08-31T11:00:01.540Z,5.9
2022-08-31T11:01:10.126Z,9.4
2022-08-31T11:02:18.390Z,9.4
2022-08-31T11:03:26.725Z,9.4
2022-08-31T11:04:35.289Z,6.8
2022-08-31T11:05:45.493Z,6.8
2022-08-31T11:06:51.887Z,6.8
2022-08-31T11:08:00.415Z,6
2022-08-31T11:09:08.742Z,6
2022-08-31T11:10:17.057Z,6
2022-08-31T11:11:25.603Z,5.7
2022-08-31T11:12:33.936Z,5.7
2022-08-31T11:13:44.291Z,5.7
2022-08-31T11:14:50.807Z,6.4
2022-08-31T11:15:59.201Z,6.4
2022-08-31T11:17:07.480Z,6.4
2022-08-31T11:18:15.984Z,4.7
2022-08-31T11:19:24.325Z,4.7
2022-08-31T11:20:32.670Z,4.7
2022-08-31T11:21:41.234Z,16.1
2022-08-31T11:22:49.559Z,16.1
2022-08-31T11:23:57.879Z,16.1
2022-08-31T11:25:06.429Z,4.7
2022-08-31T11:26:14.755Z,4.7
2022-08-31T11:27:23.074Z,4.7
2022-08-31T11:28:31.618Z,3.2
2022-08-31T11:29:39.957Z,3.2
2022-08-31T11:30:50.580Z,3.2
2022-08-31T11:31:56.796Z,6
2022-08-31T11:33:05.122Z,6
2022-08-31T11:34:17.382Z,6
2022-08-31T11:35:21.967Z,4.3
2022-08-31T11:36:30.289Z,4.3
2022-08-31T11:37:38.616Z,4.3
2022-08-31T11:38:47.150Z,3.8
2022-08-31T11:39:55.479Z,3.8
2022-08-31T11:41:03.817Z,3.8
2022-08-31T11:42:12.362Z,8.3
2022-08-31T11:43:20.705Z,8.3
2022-08-31T11:44:29.055Z,8.3
2022-08-31T11:45:37.774Z,3.5
2022-08-31T11:46:45.935Z,3.5
2022-08-31T11:47:54.247Z,3.5
2022-08-31T11:49:02.780Z,13.2
2022-08-31T11:50:11.119Z,13.2
2022-08-31T11:51:19.440Z,13.2
2022-08-31T11:52:27.978Z,4.2
2022-08-31T11:53:36.290Z,4.2
2022-08-31T11:54:44.638Z,4.2
2022-08-31T11:55:53.186Z,5.5
2022-08-31T11:57:01.506Z,5.5
2022-08-31T11:58:09.832Z,5.5
2022-08-31T11:59:18.374Z,8.4
2022-08-31T12:00:26.708Z,8.4
2022-08-31T12:01:35.037Z,8.4
2022-08-31T12:02:43.604Z,5.7
2022-08-31T12:03:51.888Z,5.7
2022-08-31T12:05:00.329Z,5.7
2022-08-31T12:06:08.769Z,4.2
2022-08-31T12:07:17.099Z,4.2
2022-08-31T12:08:25.419Z,4.2
2022-08-31T12:09:33.968Z,7.1
2022-08-31T12:10:42.297Z,7.1
2022-08-31T12:11:50.625Z,7.1
2022-08-31T12:12:59.148Z,4
2022-08-31T12:14:07.490Z,4
2022-08-31T12:15:15.967Z,4
2022-08-31T12:16:24.564Z,5.8
2022-08-31T12:17:32.816Z,5.8
2022-08-31T12:18:41.149Z,5.8
2022-08-31T12:19:49.687Z,5.3
2022-08-31T12:20:58.001Z,5.3
2022-08-31T12:22:06.362Z,5.3
2022-08-31T12:23:15.345Z,3.5
2022-08-31T12:24:23.215Z,3.5
2022-08-31T12:25:31.541Z,3.5
2022-08-31T12:26:44.507Z,8
2022-08-31T12:27:48.396Z,8
2022-08-31T12:28:56.750Z,8
2022-08-31T12:30:05.329Z,4.4
2022-08-31T12:31:13.701Z,4.4
2022-08-31T12:32:21.962Z,4.4
2022-08-31T12:33:30.497Z,3.8
2022-08-31T12:34:38.818Z,3.8
2022-08-31T12:35:47.153Z,3.8
2022-08-31T12:36:55.699Z,4.5
2022-08-31T12:38:04.228Z,4.5
2022-08-31T12:39:12.349Z,4.5
2022-08-31T12:40:20.925Z,3.6
2022-08-31T12:41:29.193Z,3.6
2022-08-31T12:42:37.519Z,3.6
2022-08-31T12:43:46.064Z,5.5
2022-08-31T12:44:54.385Z,5.5
2022-08-31T12:46:02.774Z,5.5
2022-08-31T12:47:11.252Z,4.5
2022-08-31T12:48:19.590Z,4.5
2022-08-31T12:49:27.990Z,4.5
2022-08-31T12:50:36.551Z,4.7
2022-08-31T12:51:44.870Z,4.7
2022-08-31T12:52:53.210Z,4.7
2022-08-31T12:54:01.748Z,6.6
2022-08-31T12:55:10.075Z,6.6
2022-08-31T12:56:18.399Z,6.6
2022-08-31T12:57:27.320Z,4.1
2022-08-31T12:58:35.244Z,4.1
2022-08-31T12:59:59.734Z,4.1
2022-08-31T13:00:52.116Z,4.2
2022-08-31T13:02:00.583Z,4.2
2022-08-31T13:03:08.805Z,4.2
2022-08-31T13:04:17.307Z,8
2022-08-31T13:05:25.646Z,8
2022-08-31T13:06:33.977Z,8
2022-08-31T13:07:42.500Z,5
2022-08-31T13:08:50.835Z,5
2022-08-31T13:09:59.172Z,5
2022-08-31T13:11:07.691Z,6.1
2022-08-31T13:12:16.018Z,6.1
2022-08-31T13:13:24.329Z,6.1
2022-08-31T13:14:32.878Z,5.8
2022-08-31T13:15:41.199Z,5.8
2022-08-31T13:16:49.569Z,5.8
2022-08-31T13:17:58.071Z,6.7
2022-08-31T13:19:06.401Z,6.7
2022-08-31T13:20:14.721Z,6.7
2022-08-31T13:21:23.268Z,4.3
2022-08-31T13:22:31.588Z,4.3
2022-08-31T13:23:39.925Z,4.3
2022-08-31T13:24:53.554Z,3.9
2022-08-31T13:25:56.773Z,3.9
2022-08-31T13:27:05.103Z,3.9
2022-08-31T13:28:13.675Z,3.5
2022-08-31T13:29:21.983Z,3.5
2022-08-31T13:30:30.304Z,3.5
2022-08-31T13:31:38.904Z,3.2
2022-08-31T13:32:47.158Z,3.2
2022-08-31T13:33:55.494Z,3.2
2022-08-31T13:35:04.044Z,4.3
2022-08-31T13:36:12.363Z,4.3
2022-08-31T13:37:20.687Z,4.3
2022-08-31T13:38:29.226Z,3.1
2022-08-31T13:39:37.555Z,3.1
2022-08-31T13:40:45.924Z,3.1
2022-08-31T13:41:54.412Z,4.7
2022-08-31T13:43:02.789Z,4.7
2022-08-31T13:44:11.117Z,4.7
2022-08-31T13:45:19.631Z,4.2
2022-08-31T13:46:41.751Z,4.2
2022-08-31T13:47:37.913Z,4.2
2022-08-31T13:48:44.961Z,3.3
2022-08-31T13:49:53.319Z,3.3
2022-08-31T13:51:01.602Z,3.3
2022-08-31T13:52:10.139Z,4
2022-08-31T13:53:26.912Z,4
2022-08-31T13:54:26.789Z,4
2022-08-31T13:55:35.324Z,3.1
2022-08-31T13:56:43.652Z,3.1
2022-08-31T13:57:51.965Z,3.1
2022-08-31T13:59:00.510Z,3.8
2022-08-31T14:00:08.845Z,3.8
2022-08-31T14:01:17.217Z,3.8
2022-08-31T14:02:25.732Z,3.6
2022-08-31T14:03:34.036Z,3.6
2022-08-31T14:04:42.364Z,3.6
2022-08-31T14:05:50.928Z,3.9
2022-08-31T14:06:59.251Z,3.9
2022-08-31T14:08:07.592Z,3.9
2022-08-31T14:09:17.250Z,5.4
2022-08-31T14:10:24.459Z,5.4
2022-08-31T14:11:32.783Z,5.4
2022-08-31T14:12:41.359Z,4
2022-08-31T14:13:49.684Z,4
2022-08-31T14:14:58.016Z,4
2022-08-31T14:16:06.537Z,4.5
2022-08-31T14:17:14.944Z,4.5
2022-08-31T14:18:24.161Z,4.5
2022-08-31T14:19:31.763Z,3.5
2022-08-31T14:20:40.080Z,3.5
2022-08-31T14:21:48.402Z,3.5
2022-08-31T14:22:56.944Z,3.2
2022-08-31T14:24:05.287Z,3.2
2022-08-31T14:25:13.633Z,3.2
2022-08-31T14:26:22.160Z,3.4
2022-08-31T14:27:30.486Z,3.4
2022-08-31T14:28:38.819Z,3.4
2022-08-31T15:03:03.297Z,0
2022-08-31T15:04:11.609Z,0
2022-08-31T15:05:19.925Z,0
2022-08-31T15:06:28.457Z,3.3
2022-08-31T15:07:36.786Z,3.3
2022-08-31T15:08:45.119Z,3.3
2022-08-31T15:09:53.645Z,6
2022-08-31T15:11:01.977Z,6
2022-08-31T15:12:10.299Z,6
2022-08-31T15:13:18.828Z,6.4
2022-08-31T15:14:27.161Z,6.4
2022-08-31T15:15:35.486Z,6.4
2022-08-31T15:16:44.047Z,4
2022-08-31T15:17:52.364Z,4
2022-08-31T15:19:00.695Z,4
2022-08-31T15:20:09.224Z,3.6
2022-08-31T15:21:17.551Z,3.6
2022-08-31T15:22:25.871Z,3.6
2022-08-31T15:23:34.416Z,2.3
2022-08-31T15:24:42.738Z,2.3
2022-08-31T15:25:51.067Z,2.3
2022-08-31T15:26:59.623Z,2.3
2022-08-31T15:28:07.943Z,2.3
2022-08-31T15:29:16.464Z,2.3
2022-08-31T15:30:24.841Z,2.7
2022-08-31T15:31:33.167Z,2.7
2022-08-31T15:32:41.445Z,2.7
2022-08-31T15:33:49.982Z,3
2022-08-31T15:34:58.525Z,3
2022-08-31T15:36:06.623Z,3
2022-08-31T15:37:15.156Z,2.8
2022-08-31T15:38:23.494Z,2.8
2022-08-31T15:39:31.822Z,2.8
2022-08-31T15:40:40.379Z,2.8
2022-08-31T15:41:48.678Z,2.8
2022-08-31T15:42:57.008Z,2.8
2022-08-31T15:44:05.556Z,3.2
2022-08-31T15:45:13.881Z,3.2
2022-08-31T15:46:22.296Z,3.2
2022-08-31T15:47:30.743Z,2.6